Time;durP1;ratioP1;P1;durP2;ratioP2;P2;SDS_P1;SDS_P2;PMS_P1;PMS_P2;Temp;Humidity;BMP_temperature;BMP_pressure;BME280_temperature;BME280_humidity;BME280_pressure;Samples;Min_cycle;Max_cycle;Signal;HPM_P1;HPM_P2
2022/06/02 00:00:02;;;;;;;5.75;2.75;;;;;;;17.18;80.52;99889.44;5120149;27;20047;-51
2022/06/02 00:02:54;;;;;;;6.50;2.35;;;;;;;17.15;80.40;99882.59;5112263;27;20046;-49
2022/06/02 00:05:50;;;;;;;7.28;2.80;;;;;;;17.15;80.02;99882.59;5111571;27;20035;-53
2022/06/02 00:08:54;;;;;;;7.38;3.08;;;;;;;17.14;79.92;99878.28;5113195;28;20650;-51
2022/06/02 00:11:23;;;;;;;4.55;2.60;;;;;;;17.30;79.49;99886.94;5102636;27;20043;-52
2022/06/02 00:13:58;;;;;;;;;;;;;;;17.36;79.21;99889.22;5112194;28;20071;-53
2022/06/02 00:16:30;;;;;;;3.80;2.22;;;;;;;17.26;78.70;99864.44;5145070;27;20309;-52
2022/06/02 00:19:05;;;;;;;5.07;2.42;;;;;;;17.48;78.19;99894.69;5122233;27;20055;-49
2022/06/02 00:21:40;;;;;;;4.88;2.45;;;;;;;17.48;78.08;99890.25;5120786;27;20043;-53
2022/06/02 00:24:09;;;;;;;3.83;2.63;;;;;;;17.49;78.14;99891.94;5114772;27;20195;-53
2022/06/02 00:26:53;;;;;;;5.03;2.58;;;;;;;17.49;78.02;99896.38;5128847;27;20050;-49
2022/06/02 00:29:35;;;;;;;9.82;3.58;;;;;;;17.53;78.07;99895.28;5129892;27;20031;-54
2022/06/02 00:32:07;;;;;;;8.65;3.30;;;;;;;17.53;78.03;99897.91;5130557;27;20096;-48
2022/06/02 00:35:21;;;;;;;7.15;3.20;;;;;;;17.50;78.16;99884.91;5110155;28;20142;-51
2022/06/02 00:38:01;;;;;;;7.90;2.88;;;;;;;17.46;78.68;99891.31;5096063;27;20051;-53
2022/06/02 00:40:31;;;;;;;10.05;3.80;;;;;;;17.40;79.16;99895.13;5112116;28;20329;-53
2022/06/02 00:43:01;;;;;;;8.00;3.53;;;;;;;17.36;79.80;99891.84;5117940;27;20046;-50
2022/06/02 00:45:29;;;;;;;9.80;3.67;;;;;;;17.35;80.28;99884.91;5120311;28;20379;-49
2022/06/02 00:48:09;;;;;;;6.97;3.83;;;;;;;17.38;80.41;99883.03;5129511;27;20035;-50
2022/06/02 00:50:57;;;;;;;7.38;4.18;;;;;;;17.34;80.83;99883.19;5127538;28;20066;-53
2022/06/02 00:53:34;;;;;;;8.73;3.92;;;;;;;17.32;81.04;99873.72;5130636;27;20523;-53
2022/06/02 00:59:14;;;;;;;7.57;3.75;;;;;;;17.38;81.25;99874.19;5121164;28;20080;-52
2022/06/02 01:01:40;;;;;;;7.55;4.18;;;;;;;17.34;81.04;99861.31;5125925;28;20054;-51
2022/06/02 01:04:15;;;;;;;8.13;3.90;;;;;;;17.49;81.55;99873.56;5128260;28;20125;-51
2022/06/02 01:06:41;;;;;;;7.15;3.90;;;;;;;17.54;81.63;99874.13;5109640;28;20508;-49
2022/06/02 01:09:31;;;;;;;5.38;3.90;;;;;;;17.59;81.49;99871.22;5112612;28;20051;-52
2022/06/02 01:12:35;;;;;;;8.75;4.10;;;;;;;17.54;81.01;99878.53;5111119;28;20040;-50
2022/06/02 01:15:29;;;;;;;10.65;4.35;;;;;;;17.44;81.11;99885.28;5122574;28;20054;-50
2022/06/02 01:18:02;;;;;;;5.18;3.92;;;;;;;17.35;81.40;99879.63;5115678;28;20460;-49
2022/06/02 01:20:40;;;;;;;7.25;4.40;;;;;;;17.30;82.03;99880.84;5112252;28;20126;-51
2022/06/02 01:23:52;;;;;;;5.00;3.78;;;;;;;17.20;82.34;99896.31;5126889;28;20043;-49
2022/06/02 01:26:59;;;;;;;8.82;4.47;;;;;;;17.12;82.32;99876.66;5048413;28;20135;-51
2022/06/02 01:29:30;;;;;;;10.38;4.47;;;;;;;17.07;82.36;99882.19;5047747;28;20075;-50
2022/06/02 01:32:08;;;;;;;13.38;4.93;;;;;;;17.03;82.01;99866.69;5105117;28;20475;-52
2022/06/02 01:35:09;;;;;;;10.18;4.90;;;;;;;17.01;82.54;99873.81;5120127;27;20035;-55
2022/06/02 01:37:43;;;;;;;11.60;4.90;;;;;;;16.98;82.49;99872.19;5113043;27;20145;-54
2022/06/02 01:40:28;;;;;;;7.57;4.55;;;;;;;16.94;82.72;99870.69;5128238;27;20031;-53
2022/06/02 01:43:01;;;;;;;10.30;4.80;;;;;;;16.81;82.67;99857.41;5114646;28;20118;-55
2022/06/02 01:45:37;;;;;;;10.07;4.80;;;;;;;16.81;83.27;99857.41;5115733;27;20160;-51
2022/06/02 01:48:29;;;;;;;10.73;5.00;;;;;;;16.86;83.34;99865.88;5120504;27;20533;-54
2022/06/02 01:51:11;;;;;;;8.75;5.10;;;;;;;16.78;83.37;99854.97;5113254;28;20498;-49
2022/06/02 01:54:10;;;;;;;8.13;5.25;;;;;;;16.85;83.42;99873.84;5118531;27;20606;-51
2022/06/02 01:57:13;;;;;;;8.00;4.80;;;;;;;16.80;83.77;99884.59;5133271;27;20046;-50
2022/06/02 01:59:48;;;;;;;7.63;4.63;;;;;;;16.80;84.18;99873.28;5129762;27;20046;-52
2022/06/02 02:02:32;;;;;;;11.98;5.13;;;;;;;16.80;84.26;99883.78;5120086;27;20392;-53
2022/06/02 02:05:13;;;;;;;12.10;5.43;;;;;;;16.80;84.10;99881.97;5125017;27;20044;-51
2022/06/02 02:07:59;;;;;;;11.02;5.18;;;;;;;16.82;84.12;99871.38;5117525;27;20522;-54
2022/06/02 02:10:37;;;;;;;10.07;5.40;;;;;;;16.85;84.32;99872.03;5103724;27;20528;-50
2022/06/02 02:13:30;;;;;;;6.78;4.90;;;;;;;16.89;83.87;99873.59;5133281;27;20054;-53
2022/06/02 02:16:28;;;;;;;6.68;4.80;;;;;;;16.91;83.80;99878.72;5133732;27;20061;-48
2022/06/02 02:19:17;;;;;;;8.20;4.82;;;;;;;16.97;83.53;99875.75;5120662;27;20424;-49
2022/06/02 02:22:16;;;;;;;9.43;4.80;;;;;;;17.01;83.29;99866.75;5113119;27;20085;-52
2022/06/02 02:25:00;;;;;;;6.95;5.07;;;;;;;17.17;82.53;99871.97;5127629;27;20100;-48
2022/06/02 02:28:03;;;;;;;7.22;4.90;;;;;;;17.26;82.19;99874.94;5116670;27;20119;-55
2022/06/02 02:30:44;;;;;;;8.50;4.45;;;;;;;17.31;81.65;99872.03;5128817;27;20039;-51
2022/06/02 02:33:32;;;;;;;8.88;4.80;;;;;;;17.35;81.16;99876.16;5113718;28;20051;-51
2022/06/02 02:36:04;;;;;;;8.05;5.00;;;;;;;17.44;80.36;99870.34;5122303;27;20478;-51
2022/06/02 02:38:52;;;;;;;9.65;4.72;;;;;;;17.46;80.15;99865.88;5119474;27;20051;-50
2022/06/02 02:41:26;;;;;;;9.30;4.85;;;;;;;17.48;79.74;99868.41;5129114;27;20043;-52
2022/06/02 02:43:56;;;;;;;9.10;5.32;;;;;;;17.43;79.58;99857.31;5112158;27;20042;-49
2022/06/02 02:46:34;;;;;;;15.25;6.63;;;;;;;17.34;79.70;99854.28;5115790;27;20039;-50
2022/06/02 02:49:14;;;;;;;7.90;5.40;;;;;;;17.29;79.95;99853.72;5128594;27;20104;-51
2022/06/02 02:52:01;;;;;;;9.15;5.18;;;;;;;17.21;79.95;99834.09;5129323;27;20426;-53
2022/06/02 02:54:51;;;;;;;5.63;5.00;;;;;;;17.19;79.61;99826.28;5121616;27;20035;-53
2022/06/02 02:57:35;;;;;;;7.55;4.10;;;;;;;17.22;79.41;99835.75;5117713;27;20134;-50
2022/06/02 03:00:09;;;;;;;7.57;4.70;;;;;;;17.22;79.62;99831.34;5112128;28;20063;-53
2022/06/02 03:02:54;;;;;;;8.10;4.78;;;;;;;17.25;79.63;99831.19;5127773;27;20054;-49
2022/06/02 03:05:27;;;;;;;6.75;4.57;;;;;;;17.22;79.50;99833.97;5129241;27;20078;-50
2022/06/02 03:08:02;;;;;;;8.20;4.70;;;;;;;17.21;79.36;99834.09;5129680;27;20515;-51
2022/06/02 03:10:35;;;;;;;6.65;4.22;;;;;;;17.21;79.48;99823.59;5123963;27;20045;-54
2022/06/02 03:13:06;;;;;;;6.10;4.47;;;;;;;17.24;79.44;99832.13;5129358;27;20039;-55
2022/06/02 03:15:45;;;;;;;6.47;4.68;;;;;;;17.26;79.03;99835.50;5131045;27;20512;-52
2022/06/02 03:18:31;;;;;;;10.38;4.57;;;;;;;17.25;78.69;99831.19;5128585;27;20067;-52
2022/06/02 03:21:09;;;;;;;6.63;4.05;;;;;;;17.21;78.38;99821.81;5092000;27;20479;-51
2022/06/02 03:24:03;;;;;;;6.18;4.00;;;;;;;17.22;78.24;99828.72;5121945;27;20088;-51
2022/06/02 03:26:50;;;;;;;6.80;4.43;;;;;;;17.23;78.05;99813.81;5117003;27;20171;-52
2022/06/02 03:30:12;;;;;;;5.50;3.97;;;;;;;17.27;77.74;99821.41;5124448;27;20061;-50
2022/06/02 03:32:58;;;;;;;9.27;4.20;;;;;;;17.29;77.85;99823.97;5098352;27;20562;-52
2022/06/02 03:35:43;;;;;;;7.13;4.75;;;;;;;17.34;77.70;99827.16;5103994;27;20518;-48
2022/06/02 03:38:31;;;;;;;8.48;4.32;;;;;;;17.36;77.44;99833.19;5127715;27;20117;-48
2022/06/02 03:41:05;;;;;;;10.57;5.18;;;;;;;17.38;77.43;99832.13;5130707;27;20168;-49
2022/06/02 03:43:58;;;;;;;8.00;4.70;;;;;;;17.45;77.64;99834.41;5126762;27;20488;-51
2022/06/02 03:46:35;;;;;;;6.80;4.43;;;;;;;17.47;77.50;99846.53;5125512;27;20035;-50
2022/06/02 03:49:22;;;;;;;7.85;4.10;;;;;;;17.47;76.88;99841.28;5113179;27;20065;-53
2022/06/02 03:52:16;;;;;;;6.40;4.35;;;;;;;17.48;76.33;99848.19;5127431;27;20046;-53
2022/06/02 03:54:58;;;;;;;5.38;3.92;;;;;;;17.51;75.85;99844.56;5131016;27;20038;-48
2022/06/02 03:57:51;;;;;;;9.70;3.70;;;;;;;17.55;75.67;99849.53;5115508;27;20084;-52
2022/06/02 04:00:29;;;;;;;9.10;3.55;;;;;;;17.59;75.17;99848.44;5107999;27;20070;-52
2022/06/02 04:02:55;;;;;;;8.38;3.70;;;;;;;17.61;74.78;99851.81;5120712;27;20039;-53
2022/06/02 04:05:37;;;;;;;8.35;3.30;;;;;;;17.63;74.19;99849.13;5121432;27;20035;-51
2022/06/02 04:08:42;;;;;;;6.00;3.45;;;;;;;17.66;74.03;99846.28;5112630;27;20068;-51
2022/06/02 04:11:14;;;;;;;8.05;4.28;;;;;;;17.73;73.70;99853.72;5105132;27;20039;-50
2022/06/02 04:13:42;;;;;;;8.95;3.85;;;;;;;17.75;73.83;99857.09;5123921;27;20034;-51
2022/06/02 04:16:46;;;;;;;7.28;3.67;;;;;;;17.83;73.55;99856.63;5130195;27;20050;-49
2022/06/02 04:22:56;;;;;;;6.70;4.00;;;;;;;17.88;73.12;99846.66;5097516;27;20044;-50
2022/06/02 04:25:33;;;;;;;8.45;4.28;;;;;;;17.94;73.50;99856.81;5131060;27;20525;-52
2022/06/02 04:28:30;;;;;;;6.82;4.18;;;;;;;17.98;73.51;99847.78;5119693;27;20628;-49
2022/06/02 04:31:15;;;;;;;7.70;4.20;;;;;;;17.99;73.31;99846.00;5110041;28;20043;-49
2022/06/02 04:34:06;;;;;;;9.82;4.25;;;;;;;17.97;73.18;99850.50;5113608;27;20514;-52
2022/06/02 04:36:42;;;;;;;6.22;3.85;;;;;;;18.03;73.10;99852.75;5131375;27;20429;-51
2022/06/02 04:39:25;;;;;;;8.25;5.05;;;;;;;18.07;73.07;99841.94;5110581;28;20051;-50
2022/06/02 04:41:57;;;;;;;10.38;4.03;;;;;;;18.13;73.00;99844.19;5128762;27;20392;-49
2022/06/02 04:44:44;;;;;;;8.20;4.50;;;;;;;18.18;72.73;99859.69;5115337;28;20118;-51
2022/06/02 04:47:25;;;;;;;5.82;4.25;;;;;;;18.24;72.75;99863.72;5111264;28;20054;-49
2022/06/02 04:50:18;;;;;;;11.98;4.85;;;;;;;18.30;72.64;99863.34;5111354;28;20490;-51
2022/06/02 04:53:34;;;;;;;9.82;4.68;;;;;;;18.35;72.54;99862.13;5111163;28;20403;-53
2022/06/02 04:55:59;;;;;;;7.30;4.72;;;;;;;18.41;72.35;99867.00;5119001;28;20043;-53
2022/06/02 04:58:34;;;;;;;9.88;5.28;;;;;;;18.43;72.12;99865.09;5129217;27;20131;-53
2022/06/02 05:01:05;;;;;;;9.25;4.85;;;;;;;18.49;72.02;99863.88;5131021;27;20035;-52
2022/06/02 05:03:44;;;;;;;9.18;4.82;;;;;;;18.60;71.91;99851.75;5145309;27;20154;-50
2022/06/02 05:06:23;;;;;;;12.43;4.93;;;;;;;18.72;71.61;99862.44;5131548;27;20092;-50
2022/06/02 05:08:52;;;;;;;;;;;;;;;18.81;71.31;99860.03;5128115;27;20050;-50
2022/06/02 05:11:37;;;;;;;11.77;5.20;;;;;;;18.80;71.08;99853.06;5131229;27;19919;-51
2022/06/02 05:14:17;;;;;;;7.15;4.22;;;;;;;18.82;70.85;99839.81;5132183;27;20071;-51
2022/06/02 05:16:58;;;;;;;6.47;4.18;;;;;;;18.86;70.53;99847.41;5126391;27;20047;-50
2022/06/02 05:19:47;;;;;;;8.93;4.35;;;;;;;18.91;69.92;99847.94;5115885;27;20051;-50
2022/06/02 05:22:12;;;;;;;11.55;4.30;;;;;;;18.95;69.92;99836.25;5120069;27;20042;-51
2022/06/02 05:25:02;;;;;;;5.25;4.13;;;;;;;19.07;69.30;99839.03;5118554;27;20031;-49
2022/06/02 05:27:31;;;;;;;7.82;4.40;;;;;;;19.14;68.92;99837.66;5125000;27;20035;-50
2022/06/02 05:29:57;;;;;;;7.97;4.65;;;;;;;19.23;69.03;99835.25;5120650;27;20408;-52
2022/06/02 05:32:55;;;;;;;11.02;4.10;;;;;;;19.38;68.94;99839.47;5124111;27;20064;-50
2022/06/02 05:35:35;;;;;;;6.63;4.40;;;;;;;19.53;68.50;99842.91;5132867;27;20042;-54
2022/06/02 05:38:32;;;;;;;10.10;4.60;;;;;;;19.66;68.16;99845.53;5125128;27;20116;-50
2022/06/02 05:41:07;;;;;;;11.80;4.68;;;;;;;19.76;68.21;99842.16;5125536;27;20042;-50
2022/06/02 05:44:16;;;;;;;11.82;4.63;;;;;;;19.92;67.88;99847.22;5115375;27;20067;-51
2022/06/02 05:47:01;;;;;;;;;;;;;;;20.05;67.06;99849.81;5106119;27;20408;-49
2022/06/02 05:49:42;;;;;;;12.88;4.07;;;;;;;20.16;66.66;99836.69;5124636;27;19922;-54
2022/06/02 05:52:29;;;;;;;11.43;4.70;;;;;;;20.30;66.67;99829.50;5133016;27;20046;-54
2022/06/02 05:55:23;;;;;;;12.15;4.93;;;;;;;20.49;65.47;99841.41;5128835;27;20035;-48
2022/06/02 05:58:03;;;;;;;11.43;5.05;;;;;;;20.49;64.84;99829.03;5118615;27;20048;-55
2022/06/02 06:00:58;;;;;;;9.00;5.45;;;;;;;20.46;64.20;99820.50;5131986;27;20529;-53
2022/06/02 06:04:15;;;;;;;9.65;5.20;;;;;;;20.52;64.45;99830.59;5123295;27;20036;-50
2022/06/02 06:06:46;;;;;;;10.85;5.13;;;;;;;20.61;64.11;99817.59;5086590;27;20067;-52
2022/06/02 06:09:15;;;;;;;8.00;5.07;;;;;;;20.77;63.83;99816.44;5120435;27;20043;-49
2022/06/02 06:12:05;;;;;;;11.68;4.47;;;;;;;20.90;63.69;99818.06;5139533;27;20668;-51
2022/06/02 06:14:50;;;;;;;11.50;5.38;;;;;;;21.20;63.17;99812.28;5118125;27;20036;-55
2022/06/02 06:17:37;;;;;;;8.13;4.75;;;;;;;21.48;62.23;99825.09;5139973;27;20038;-58
2022/06/02 06:20:03;;;;;;;12.40;4.95;;;;;;;21.56;61.62;99827.16;5123716;27;20039;-54
2022/06/02 06:22:42;;;;;;;8.73;5.00;;;;;;;21.62;61.33;99821.38;5119305;27;20528;-57
2022/06/02 06:25:14;;;;;;;;;;;;;;;21.76;60.75;99826.44;5132559;27;20040;-55
2022/06/02 06:28:23;;;;;;;8.32;4.53;;;;;;;21.93;60.78;99820.66;5124871;27;19916;-56
2022/06/02 06:31:07;;;;;;;9.25;4.93;;;;;;;21.91;59.88;99824.38;5113573;27;20047;-58
2022/06/02 06:33:53;;;;;;;8.93;4.97;;;;;;;22.20;59.40;99820.28;5127769;27;20050;-54
2022/06/02 06:36:46;;;;;;;10.85;5.20;;;;;;;22.59;57.97;99818.03;5121407;27;20134;-58
2022/06/02 06:39:24;;;;;;;7.32;4.80;;;;;;;23.07;56.41;99821.97;5131886;27;20058;-57
2022/06/02 06:42:05;;;;;;;11.65;5.25;;;;;;;24.04;53.66;99812.72;5131543;27;20050;-59
2022/06/02 06:44:49;;;;;;;11.23;5.32;;;;;;;25.21;50.65;99815.41;5133886;27;20058;-60
2022/06/02 06:47:30;;;;;;;12.57;5.63;;;;;;;26.05;48.27;99810.97;5113956;27;20039;-58
2022/06/02 06:49:56;;;;;;;8.52;4.65;;;;;;;26.61;47.15;99816.09;5106805;27;20038;-55
2022/06/02 06:52:45;;;;;;;7.20;5.03;;;;;;;27.61;45.06;99800.59;5117160;27;20503;-54
2022/06/02 06:55:44;;;;;;;11.63;4.90;;;;;;;29.22;42.49;99810.06;5121499;27;20080;-56
2022/06/02 06:58:26;;;;;;;11.45;5.03;;;;;;;30.22;40.16;99814.03;5118522;27;20050;-54
2022/06/02 07:01:10;;;;;;;8.98;5.30;;;;;;;31.36;38.12;99816.75;5119338;27;20087;-55
2022/06/02 07:03:55;;;;;;;12.15;5.05;;;;;;;32.52;35.79;99815.06;5121237;27;20590;-48
2022/06/02 07:06:21;;;;;;;9.38;5.07;;;;;;;32.85;33.82;99814.59;5123358;27;20426;-46
2022/06/02 07:09:12;;;;;;;9.88;4.50;;;;;;;33.47;32.92;99817.44;5121207;27;20039;-46
2022/06/02 07:14:49;;;;;;;10.23;5.65;;;;;;;34.66;30.53;99827.78;5123126;27;20523;-48
2022/06/02 07:17:33;;;;;;;10.45;5.07;;;;;;;35.21;29.69;99829.38;5111138;27;20399;-45
2022/06/02 07:20:07;;;;;;;10.43;5.40;;;;;;;34.97;29.94;99831.81;5111604;27;20439;-51
2022/06/02 07:22:42;;;;;;;8.35;5.95;;;;;;;35.17;29.72;99827.25;5120544;27;20440;-50
2022/06/02 07:25:18;;;;;;;9.38;5.43;;;;;;;35.08;29.39;99834.72;5110011;27;20050;-50
2022/06/02 07:27:44;;;;;;;10.65;6.25;;;;;;;35.31;29.33;99825.41;5127668;27;20051;-50
2022/06/02 07:30:35;;;;;;;9.70;5.28;;;;;;;36.59;27.81;99824.66;5110859;28;20506;-46
2022/06/02 07:33:31;;;;;;;8.68;5.15;;;;;;;37.85;26.36;99831.53;5122449;27;20031;-48
2022/06/02 07:36:16;;;;;;;10.07;5.72;;;;;;;37.61;26.27;99840.59;5110296;28;20051;-43
2022/06/02 07:39:19;;;;;;;19.27;6.60;;;;;;;37.50;26.61;99831.28;5121889;27;20046;-44
2022/06/02 07:42:22;;;;;;;11.65;5.13;;;;;;;35.36;28.56;99833.72;5111867;27;20062;-47
2022/06/02 07:45:06;;;;;;;12.10;5.13;;;;;;;34.61;29.96;99827.56;5109305;27;20057;-49
2022/06/02 07:48:16;;;;;;;8.82;4.97;;;;;;;35.44;28.90;99828.91;5111425;27;20133;-47
2022/06/02 07:51:05;;;;;;;7.35;4.82;;;;;;;35.68;28.22;99816.66;5132201;27;20482;-47
2022/06/02 07:53:46;;;;;;;10.43;5.35;;;;;;;36.26;27.70;99833.78;5129318;27;20058;-49
2022/06/02 07:56:37;;;;;;;7.65;4.75;;;;;;;35.19;29.28;99817.09;5111699;28;20185;-45
2022/06/02 07:59:37;;;;;;;7.45;6.43;;;;;;;34.92;29.51;99827.03;5103962;28;20055;-45
2022/06/02 08:02:24;;;;;;;10.95;5.18;;;;;;;33.29;31.79;99825.19;5127747;27;20584;-45
2022/06/02 08:05:01;;;;;;;8.02;5.07;;;;;;;34.54;30.07;99826.75;5117504;27;20031;-46
2022/06/02 08:07:37;;;;;;;7.25;4.63;;;;;;;36.11;28.00;99816.94;5110400;28;20035;-48
2022/06/02 08:10:26;;;;;;;7.03;4.72;;;;;;;36.89;26.99;99825.72;5119025;27;20035;-48
2022/06/02 08:13:00;;;;;;;9.10;5.03;;;;;;;34.42;30.09;99822.94;5110520;28;20038;-46
2022/06/02 08:15:58;;;;;;;11.73;5.50;;;;;;;34.65;29.83;99825.31;5113817;27;20044;-49
2022/06/02 08:18:27;;;;;;;8.70;5.10;;;;;;;35.53;28.92;99814.16;5114579;27;20127;-46
2022/06/02 08:21:17;;;;;;;10.43;5.15;;;;;;;35.52;29.18;99822.47;5132064;27;20043;-47
2022/06/02 08:23:52;;;;;;;11.15;4.60;;;;;;;36.24;28.40;99825.03;5129150;27;20043;-45
2022/06/02 08:26:35;;;;;;;15.02;5.13;;;;;;;38.06;26.42;99814.81;5130779;27;20046;-45
2022/06/02 08:29:15;;;;;;;5.50;3.60;;;;;;;38.97;24.79;99806.47;5131027;27;20518;-48
2022/06/02 08:31:54;;;;;;;8.95;4.10;;;;;;;38.93;24.39;99840.66;5131799;27;20050;-47
2022/06/02 08:34:26;;;;;;;7.38;3.78;;;;;;;37.31;26.28;99822.28;5129826;27;20510;-47
2022/06/02 08:37:14;;;;;;;8.63;4.43;;;;;;;36.46;27.54;99822.84;5130414;27;20200;-46
2022/06/02 08:40:02;;;;;;;11.27;4.25;;;;;;;38.34;25.61;99825.13;5130044;27;20550;-45
2022/06/02 08:42:34;;;;;;;7.22;4.68;;;;;;;39.06;24.43;99827.88;5113737;28;20043;-48
2022/06/02 08:45:12;;;;;;;9.43;4.53;;;;;;;37.75;26.07;99821.22;5121455;27;20365;-45
2022/06/02 08:47:55;;;;;;;13.00;4.82;;;;;;;36.01;28.13;99822.78;5109636;28;20175;-48
2022/06/02 08:50:36;;;;;;;10.13;5.50;;;;;;;36.44;27.73;99827.63;5109968;28;20150;-46
2022/06/02 08:53:20;;;;;;;12.63;4.53;;;;;;;36.69;27.22;99825.84;5111604;28;20156;-45
2022/06/02 08:56:25;;;;;;;8.10;4.07;;;;;;;34.76;29.90;99828.25;5126675;28;20538;-47
2022/06/02 08:59:12;;;;;;;10.30;5.03;;;;;;;35.85;28.63;99825.16;5111317;28;20044;-50
2022/06/02 09:02:02;;;;;;;5.43;4.00;;;;;;;35.54;28.83;99818.50;5109677;28;20031;-45
2022/06/02 09:04:49;;;;;;;9.68;4.38;;;;;;;35.75;28.59;99822.06;5125916;28;20158;-46
2022/06/02 09:07:38;;;;;;;5.72;4.43;;;;;;;37.39;26.55;99821.16;5130295;28;20043;-45
2022/06/02 09:10:37;;;;;;;9.90;4.28;;;;;;;35.21;29.05;99828.53;5126775;28;20426;-47
2022/06/02 09:13:21;;;;;;;5.00;3.45;;;;;;;34.50;30.69;99816.53;5131637;27;20047;-45
2022/06/02 09:15:57;;;;;;;6.50;3.20;;;;;;;34.90;30.01;99812.06;5124782;28;20040;-46
2022/06/02 09:19:01;;;;;;;6.47;3.92;;;;;;;36.09;28.04;99813.59;5111587;28;20039;-47
2022/06/02 09:21:29;;;;;;;7.22;4.55;;;;;;;37.25;26.76;99803.34;5110088;28;20117;-45
2022/06/02 09:24:22;;;;;;;7.78;4.30;;;;;;;38.48;25.14;99818.47;5127858;27;20039;-44
2022/06/02 09:27:03;;;;;;;8.23;3.80;;;;;;;38.31;25.33;99812.03;5110830;28;20059;-47
2022/06/02 09:29:42;;;;;;;7.07;3.83;;;;;;;38.45;25.10;99809.97;5102551;28;20035;-46
2022/06/02 09:32:47;;;;;;;7.20;3.70;;;;;;;39.48;24.33;99810.44;5130227;27;20455;-45
2022/06/02 09:35:22;;;;;;;5.25;3.30;;;;;;;40.03;23.74;99823.66;5054708;28;20098;-46
2022/06/02 09:37:53;;;;;;;5.57;3.47;;;;;;;38.92;24.61;99794.66;5120340;28;20067;-46
2022/06/02 09:40:44;;;;;;;5.68;4.20;;;;;;;39.22;24.50;99795.38;5125569;27;20139;-48
2022/06/02 09:43:32;;;;;;;8.65;4.40;;;;;;;40.62;23.01;99797.84;5126228;27;20035;-47
2022/06/02 09:46:08;;;;;;;5.18;3.10;;;;;;;38.99;24.53;99792.66;5109188;28;20155;-45
2022/06/02 09:48:43;;;;;;;5.40;3.53;;;;;;;36.87;26.83;99787.97;5092677;28;20040;-50
2022/06/02 09:51:46;;;;;;;3.47;3.03;;;;;;;35.43;28.55;99786.72;5109453;28;20031;-47
2022/06/02 09:54:19;;;;;;;5.28;3.72;;;;;;;37.16;27.11;99781.06;5111280;28;20035;-46
2022/06/02 10:00:11;;;;;;;5.88;3.63;;;;;;;40.57;22.82;99771.31;5121540;27;20043;-46
2022/06/02 10:03:01;;;;;;;7.72;3.55;;;;;;;40.99;22.28;99776.41;5130810;27;20108;-48
2022/06/02 10:06:11;;;;;;;4.78;3.35;;;;;;;40.07;22.96;99754.81;5116205;27;20533;-49
2022/06/02 10:09:05;;;;;;;4.25;3.75;;;;;;;40.72;23.03;99764.50;5123114;27;20051;-45
2022/06/02 10:11:49;;;;;;;9.43;4.07;;;;;;;42.18;21.49;99766.63;5119435;27;20047;-48
2022/06/02 10:14:41;;;;;;;6.65;3.67;;;;;;;41.72;21.78;99765.22;5140545;27;20038;-46
2022/06/02 10:17:33;;;;;;;8.38;3.92;;;;;;;40.68;22.74;99755.97;5111312;27;20058;-46
2022/06/02 10:20:25;;;;;;;8.82;4.00;;;;;;;41.68;21.44;99755.91;5130269;27;20069;-46
2022/06/02 10:23:24;;;;;;;5.78;4.00;;;;;;;41.16;22.00;99768.22;5131419;27;20045;-46
2022/06/02 10:25:59;;;;;;;5.45;4.00;;;;;;;41.69;21.51;99756.72;5122310;27;20422;-50
2022/06/02 10:28:43;;;;;;;6.80;3.00;;;;;;;41.63;21.51;99757.72;5122851;27;20038;-51
2022/06/02 10:31:20;;;;;;;4.20;3.80;;;;;;;41.03;21.50;99759.31;5123034;27;20084;-45
2022/06/02 10:34:16;;;;;;;4.75;3.63;;;;;;;40.08;22.37;99751.03;5130282;27;20074;-44
2022/06/02 10:37:03;;;;;;;5.82;4.05;;;;;;;38.96;23.83;99755.03;5114268;27;20043;-45
2022/06/02 10:40:06;;;;;;;7.53;4.03;;;;;;;40.35;22.35;99753.19;5122016;27;20082;-46
2022/06/02 10:43:04;;;;;;;5.70;4.00;;;;;;;41.36;21.62;99758.44;5115641;27;20074;-45
2022/06/02 10:45:46;;;;;;;4.53;3.60;;;;;;;41.57;21.25;99756.84;5124438;27;20047;-46
2022/06/02 10:48:36;;;;;;;7.18;3.50;;;;;;;41.83;20.85;99758.81;5123164;27;20042;-47
2022/06/02 10:51:43;;;;;;;6.97;3.90;;;;;;;40.65;21.81;99747.47;5133622;27;20209;-46
2022/06/02 10:54:30;;;;;;;6.50;3.30;;;;;;;39.83;22.28;99753.25;5114575;27;20134;-48
2022/06/02 10:57:08;;;;;;;8.32;3.90;;;;;;;39.69;22.66;99747.19;5125088;27;20043;-48
2022/06/02 10:59:52;;;;;;;5.50;3.72;;;;;;;40.61;21.61;99744.38;5114619;27;20427;-47
2022/06/02 11:02:38;;;;;;;5.55;3.70;;;;;;;40.93;21.10;99755.59;5109633;28;20035;-45
2022/06/02 11:05:15;;;;;;;4.70;3.90;;;;;;;40.84;21.59;99748.88;5110318;28;20063;-50
2022/06/02 11:08:18;;;;;;;5.95;3.83;;;;;;;41.47;21.23;99743.06;5111160;28;20130;-48
2022/06/02 11:10:59;;;;;;;7.18;3.42;;;;;;;40.01;22.18;99731.28;5129190;27;20475;-45
2022/06/02 11:13:40;;;;;;;3.83;3.42;;;;;;;38.15;24.63;99728.44;5129192;27;20034;-48
2022/06/02 11:16:43;;;;;;;6.55;3.38;;;;;;;37.19;25.43;99744.56;5123942;27;20125;-46
2022/06/02 11:19:27;;;;;;;5.50;3.80;;;;;;;37.90;24.50;99736.69;5113944;27;20583;-54
2022/06/02 11:22:17;;;;;;;5.38;3.55;;;;;;;39.25;23.17;99736.97;5122602;27;20074;-52
2022/06/02 11:25:01;;;;;;;4.43;3.50;;;;;;;39.49;22.85;99741.34;5133556;27;20039;-48
2022/06/02 11:27:33;;;;;;;4.68;2.78;;;;;;;39.48;22.89;99741.56;5125372;27;20066;-49
2022/06/02 11:30:25;;;;;;;4.30;3.47;;;;;;;37.86;25.05;99740.91;5111605;28;20043;-47
2022/06/02 11:32:54;;;;;;;6.13;4.22;;;;;;;38.15;24.68;99736.59;5128518;27;20054;-48
2022/06/02 11:35:55;;;;;;;9.20;4.10;;;;;;;40.11;22.79;99744.25;5132837;27;20035;-49
2022/06/02 11:38:36;;;;;;;6.43;3.67;;;;;;;39.93;23.18;99731.66;5098996;28;20070;-45
2022/06/02 11:41:20;;;;;;;4.78;3.83;;;;;;;39.23;22.92;99728.19;5112084;27;20039;-51
2022/06/02 11:44:01;;;;;;;4.95;3.45;;;;;;;39.91;22.84;99735.69;5132680;27;20039;-49
2022/06/02 11:46:48;;;;;;;6.00;3.28;;;;;;;39.60;22.90;99732.31;5132661;27;20422;-45
2022/06/02 11:49:26;;;;;;;;;;;;;;;39.01;23.78;99721.69;5112461;28;20146;-47
2022/06/02 11:52:49;;;;;;;7.80;3.35;;;;;;;39.66;22.84;99728.63;5112284;28;20006;-45
2022/06/02 11:55:30;;;;;;;6.68;4.28;;;;;;;39.52;22.96;99734.59;5069078;28;20040;-49
2022/06/02 11:58:24;;;;;;;11.23;3.75;;;;;;;40.10;22.30;99734.41;5067498;28;20086;-47
2022/06/02 12:00:52;;;;;;;5.07;2.95;;;;;;;37.96;23.96;99719.47;5121843;27;20402;-48
2022/06/02 12:03:50;;;;;;;6.80;3.03;;;;;;;36.18;26.46;99719.44;5142749;27;20130;-47
2022/06/02 12:06:36;;;;;;;5.20;3.40;;;;;;;36.71;26.13;99723.47;5131729;27;20034;-47
2022/06/02 12:09:33;;;;;;;5.22;3.65;;;;;;;37.15;25.46;99719.78;5131911;27;20067;-45
2022/06/02 12:12:11;;;;;;;5.43;3.83;;;;;;;37.11;25.53;99715.84;5126967;27;20088;-47
2022/06/02 12:15:14;;;;;;;9.93;3.58;;;;;;;37.18;25.21;99711.19;5129827;27;20292;-50
2022/06/02 12:17:39;;;;;;;7.97;3.85;;;;;;;37.24;25.74;99720.31;5131556;27;20038;-50
2022/06/02 12:20:27;;;;;;;5.18;3.15;;;;;;;37.62;25.06;99717.41;5131892;27;20440;-48
2022/06/02 12:22:52;;;;;;;3.28;2.90;;;;;;;36.04;26.02;99714.09;5130567;27;20087;-46
2022/06/02 12:25:57;;;;;;;3.88;3.20;;;;;;;35.36;27.30;99712.03;5129012;27;20034;-46
2022/06/02 12:28:27;;;;;;;6.38;3.47;;;;;;;34.37;29.07;99709.31;5114029;27;20131;-52
2022/06/02 12:31:04;;;;;;;7.75;3.50;;;;;;;33.22;30.89;99708.41;5131750;27;20122;-45
2022/06/02 12:33:36;;;;;;;12.80;3.95;;;;;;;32.42;32.07;99704.19;5130306;27;20035;-52
2022/06/02 12:36:30;;;;;;;6.53;3.30;;;;;;;31.83;33.16;99698.13;5130117;27;20063;-47
2022/06/02 12:39:40;;;;;;;5.90;3.25;;;;;;;31.19;34.28;99705.94;5131785;27;20096;-50
2022/06/02 12:42:24;;;;;;;8.27;3.45;;;;;;;30.73;34.65;99708.69;5129907;27;20164;-48
2022/06/02 12:45:12;;;;;;;4.72;3.42;;;;;;;30.48;35.17;99701.03;5131714;28;20027;-47
2022/06/02 12:48:02;;;;;;;5.30;3.13;;;;;;;30.50;35.18;99696.31;5100327;28;20422;-45
2022/06/02 12:50:44;;;;;;;7.22;3.80;;;;;;;30.20;36.29;99681.94;5131799;27;20329;-47
2022/06/02 12:53:34;;;;;;;6.15;3.70;;;;;;;29.89;36.41;99696.19;5115794;28;20039;-46
2022/06/02 12:56:32;;;;;;;6.60;3.15;;;;;;;29.70;36.48;99699.28;5111190;28;20485;-49
2022/06/02 12:59:16;;;;;;;5.15;3.03;;;;;;;29.53;37.38;99697.66;5130002;28;20535;-48
2022/06/02 13:02:06;;;;;;;5.03;3.42;;;;;;;29.34;38.02;99687.38;5131538;28;20059;-45
2022/06/02 13:04:34;;;;;;;6.65;4.00;;;;;;;29.36;38.27;99696.09;5131350;27;20047;-48